• Join FlightAware (Why Join?)
  • Login
  • US Flag 
10:26AM EDT


 

Airport Tracker/Info


-or-


 

Live Flight TrackerFlight Track Log ✈ SRY650 ✈ 05-May-2013 ✈ KFRG - KACY

Flight Track Log - Related Links

Times and Time Zones

All times are in EDT time to prevent confusion due to time zone crossing. See the SRY650 flight status page for this flight to view local times or setup timezone preferences in your user account.

Time Position Orientation Groundspeed Altitude Reporting Facility
EDT Latitude Longitude Course Direction KTS MPH feet Rate Location/Type
12:11PM 40.7667 -73.4167 210° Southwest 159 183 2,100  Level New York TRACON
12:12PM 40.8167 -73.4500 333° Northwest 218 251 3,700 1,620 Climbing New York TRACON
12:13PM 40.7833 -73.5167 237° Southwest 214 246 5,400 1,140 Climbing New York TRACON
12:14PM 40.7333 -73.5833 225° Southwest 243 280 6,000 300 Climbing New York TRACON
12:15PM 40.7000 -73.6667 242° Southwest 271 312 6,000  Level New York TRACON
12:16PM 40.5786 -73.7962 210° Southwest  Level FlightAware Approximate
12:16PM 40.6500 -73.7500 232° Southwest 278 320 6,000  Level New York TRACON
12:17PM 40.5833 -73.8000 210° Southwest 279 321 6,000 -180 Level New York TRACON
12:19PM 40.4871 -73.8725 210° Southwest  Level FlightAware Approximate
12:26PM 40.1382 -74.1226 201° Southwest  Level FlightAware Approximate
12:27PM 40.0851 -74.1491 201° Southwest  Level FlightAware Approximate
12:28PM 40.0284 -74.1524 182° South  Level FlightAware Approximate
12:28PM 39.8092 -74.1681 182° South 263 303 4,000  Level Washington Center
12:29PM 39.9716 -74.1549 182° South  Level FlightAware Approximate
12:30PM 39.9147 -74.1573 182° South  Level FlightAware Approximate
12:30PM 39.7322 -74.2581 232° Southwest  Level Estimated
12:31PM 39.8579 -74.1598 182° South  Level FlightAware Approximate
12:32PM 39.8010 -74.1623 182° South  Level FlightAware Approximate
12:32PM 39.6033 -74.3983 232° Southwest 252 290 4,000  Level Washington Center
12:33PM 39.7442 -74.1647 182° South  Level FlightAware Approximate
12:34PM 39.5282 -74.4907 232° Southwest  Level Estimated
12:36PM 39.6061 -74.7136 232° Southwest 224 258 1,900  Level Washington Center
12:37PM 39.4500 -74.5667 232° Southwest  Level FlightAware Approximate
12:41PM 39.4500 -74.5667 232° Southwest  Level FlightAware Approximate